sensor_id;sensor_type;location;lat;lon;timestamp;pressure;altitude;pressure_sealevel;temperature;humidity
66742;BME280;53654;54.152;19.432;2023-04-23T00:00:56;101175.15;;;12.86;50.30
66742;BME280;53654;54.152;19.432;2023-04-23T00:03:36;101175.17;;;12.84;50.23
66742;BME280;53654;54.152;19.432;2023-04-23T00:06:07;101174.84;;;12.83;50.10
66742;BME280;53654;54.152;19.432;2023-04-23T00:08:39;101173.08;;;12.84;50.16
66742;BME280;53654;54.152;19.432;2023-04-23T00:11:08;101171.86;;;12.83;50.11
66742;BME280;53654;54.152;19.432;2023-04-23T00:13:37;101171.51;;;12.83;50.14
66742;BME280;53654;54.152;19.432;2023-04-23T00:16:06;101170.30;;;12.82;50.20
66742;BME280;53654;54.152;19.432;2023-04-23T00:18:35;101168.92;;;12.79;50.26
66742;BME280;53654;54.152;19.432;2023-04-23T00:21:03;101167.55;;;12.77;50.33
66742;BME280;53654;54.152;19.432;2023-04-23T00:23:31;101166.34;;;12.76;50.38
66742;BME280;53654;54.152;19.432;2023-04-23T00:25:59;101166.69;;;12.76;50.41
66742;BME280;53654;54.152;19.432;2023-04-23T00:28:27;101162.15;;;12.75;50.32
66742;BME280;53654;54.152;19.432;2023-04-23T00:30:55;101163.02;;;12.75;50.45
66742;BME280;53654;54.152;19.432;2023-04-23T00:33:23;101158.14;;;12.73;50.44
66742;BME280;53654;54.152;19.432;2023-04-23T00:35:52;101157.99;;;12.71;50.49
66742;BME280;53654;54.152;19.432;2023-04-23T00:38:20;101155.39;;;12.68;50.47
66742;BME280;53654;54.152;19.432;2023-04-23T00:40:48;101152.63;;;12.65;50.52
66742;BME280;53654;54.152;19.432;2023-04-23T00:43:16;101151.25;;;12.63;50.74
66742;BME280;53654;54.152;19.432;2023-04-23T00:45:46;101150.21;;;12.62;50.64
66742;BME280;53654;54.152;19.432;2023-04-23T00:48:15;101148.13;;;12.59;50.64
66742;BME280;53654;54.152;19.432;2023-04-23T00:50:45;101149.90;;;12.57;50.80
66742;BME280;53654;54.152;19.432;2023-04-23T00:53:13;101144.83;;;12.57;50.76
66742;BME280;53654;54.152;19.432;2023-04-23T00:55:41;101149.73;;;12.57;50.78
66742;BME280;53654;54.152;19.432;2023-04-23T00:58:09;101146.76;;;12.57;50.77
66742;BME280;53654;54.152;19.432;2023-04-23T01:00:43;101144.14;;;12.57;50.61
66742;BME280;53654;54.152;19.432;2023-04-23T01:03:14;101141.89;;;12.54;50.62
66742;BME280;53654;54.152;19.432;2023-04-23T01:05:46;101141.55;;;12.53;50.77
66742;BME280;53654;54.152;19.432;2023-04-23T01:08:15;101143.85;;;12.51;50.77
66742;BME280;53654;54.152;19.432;2023-04-23T01:10:44;101142.10;;;12.50;50.79
66742;BME280;53654;54.152;19.432;2023-04-23T01:13:14;101144.39;;;12.49;50.82
66742;BME280;53654;54.152;19.432;2023-04-23T01:15:43;101142.48;;;12.48;50.74
66742;BME280;53654;54.152;19.432;2023-04-23T01:18:13;101144.23;;;12.47;50.74
66742;BME280;53654;54.152;19.432;2023-04-23T01:20:41;101142.48;;;12.47;50.63
66742;BME280;53654;54.152;19.432;2023-04-23T01:23:10;101141.45;;;12.45;50.74
66742;BME280;53654;54.152;19.432;2023-04-23T01:25:38;101140.24;;;12.44;50.66
66742;BME280;53654;54.152;19.432;2023-04-23T01:28:07;101140.42;;;12.43;50.78
66742;BME280;53654;54.152;19.432;2023-04-23T01:30:38;101140.60;;;12.43;50.76
66742;BME280;53654;54.152;19.432;2023-04-23T01:36:36;101132.13;;;12.33;50.78
66742;BME280;53654;54.152;19.432;2023-04-23T01:39:04;101128.08;;;12.35;50.92
66742;BME280;53654;54.152;19.432;2023-04-23T01:41:33;101127.19;;;12.36;50.87
66742;BME280;53654;54.152;19.432;2023-04-23T01:44:02;101127.02;;;12.37;50.82
66742;BME280;53654;54.152;19.432;2023-04-23T01:46:30;101125.08;;;12.38;50.85
66742;BME280;53654;54.152;19.432;2023-04-23T01:48:58;101121.94;;;12.38;50.83
66742;BME280;53654;54.152;19.432;2023-04-23T01:51:28;101125.44;;;12.37;50.87
66742;BME280;53654;54.152;19.432;2023-04-23T01:53:56;101124.40;;;12.37;50.81
66742;BME280;53654;54.152;19.432;2023-04-23T01:56:26;101119.17;;;12.34;50.86
66742;BME280;53654;54.152;19.432;2023-04-23T01:58:55;101118.46;;;12.35;50.85
66742;BME280;53654;54.152;19.432;2023-04-23T02:01:23;101121.98;;;12.33;50.86
66742;BME280;53654;54.152;19.432;2023-04-23T02:03:51;101121.81;;;12.33;50.89
66742;BME280;53654;54.152;19.432;2023-04-23T02:06:20;101121.27;;;12.33;50.92
66742;BME280;53654;54.152;19.432;2023-04-23T02:08:48;101116.21;;;12.32;50.98
66742;BME280;53654;54.152;19.432;2023-04-23T02:11:16;101117.42;;;12.34;50.88
66742;BME280;53654;54.152;19.432;2023-04-23T02:13:44;101115.52;;;12.32;50.88
66742;BME280;53654;54.152;19.432;2023-04-23T02:16:12;101116.56;;;12.33;50.92
66742;BME280;53654;54.152;19.432;2023-04-23T02:18:41;101114.64;;;12.33;50.88
66742;BME280;53654;54.152;19.432;2023-04-23T02:21:09;101113.75;;;12.34;50.89
66742;BME280;53654;54.152;19.432;2023-04-23T02:23:37;101112.34;;;12.35;50.76
66742;BME280;53654;54.152;19.432;2023-04-23T02:26:06;101106.40;;;12.34;50.75
66742;BME280;53654;54.152;19.432;2023-04-23T02:28:34;101106.41;;;12.33;50.70
66742;BME280;53654;54.152;19.432;2023-04-23T02:31:02;101102.39;;;12.33;50.84
66742;BME280;53654;54.152;19.432;2023-04-23T02:33:30;101099.06;;;12.33;50.84
66742;BME280;53654;54.152;19.432;2023-04-23T02:35:59;101102.20;;;12.35;50.71
66742;BME280;53654;54.152;19.432;2023-04-23T02:38:28;101103.77;;;12.34;50.71
66742;BME280;53654;54.152;19.432;2023-04-23T02:40:56;101104.30;;;12.34;50.63
66742;BME280;53654;54.152;19.432;2023-04-23T02:43:24;101101.14;;;12.34;50.51
66742;BME280;53654;54.152;19.432;2023-04-23T02:45:52;101100.80;;;12.35;50.58
66742;BME280;53654;54.152;19.432;2023-04-23T02:48:20;101104.65;;;12.34;50.60
66742;BME280;53654;54.152;19.432;2023-04-23T02:50:49;101101.34;;;12.32;50.69
66742;BME280;53654;54.152;19.432;2023-04-23T02:53:17;101110.09;;;12.33;50.70
66742;BME280;53654;54.152;19.432;2023-04-23T02:55:45;101101.66;;;12.34;50.60
66742;BME280;53654;54.152;19.432;2023-04-23T02:58:13;101098.86;;;12.36;50.48
66742;BME280;53654;54.152;19.432;2023-04-23T03:00:42;101102.02;;;12.35;50.47
66742;BME280;53654;54.152;19.432;2023-04-23T03:03:10;101098.87;;;12.35;50.49
66742;BME280;53654;54.152;19.432;2023-04-23T03:05:39;101102.18;;;12.36;50.46
66742;BME280;53654;54.152;19.432;2023-04-23T03:08:07;101095.21;;;12.33;50.52
66742;BME280;53654;54.152;19.432;2023-04-23T03:10:35;101094.55;;;12.29;50.58
66742;BME280;53654;54.152;19.432;2023-04-23T03:13:04;101092.13;;;12.27;50.58
66742;BME280;53654;54.152;19.432;2023-04-23T03:15:32;101093.91;;;12.23;50.61
66742;BME280;53654;54.152;19.432;2023-04-23T03:18:01;101089.21;;;12.20;50.64
66742;BME280;53654;54.152;19.432;2023-04-23T03:20:31;101085.91;;;12.18;50.79
66742;BME280;53654;54.152;19.432;2023-04-23T03:22:59;101084.87;;;12.18;50.83
66742;BME280;53654;54.152;19.432;2023-04-23T03:25:28;101085.23;;;12.17;50.93
66742;BME280;53654;54.152;19.432;2023-04-23T03:27:56;101085.08;;;12.15;50.89
66742;BME280;53654;54.152;19.432;2023-04-23T03:30:26;101086.84;;;12.13;50.85
66742;BME280;53654;54.152;19.432;2023-04-23T03:32:55;101084.08;;;12.10;50.93
66742;BME280;53654;54.152;19.432;2023-04-23T03:35:24;101083.20;;;12.10;50.96
66742;BME280;53654;54.152;19.432;2023-04-23T03:37:53;101075.52;;;12.09;50.99
66742;BME280;53654;54.152;19.432;2023-04-23T03:40:23;101073.95;;;12.07;50.89
66742;BME280;53654;54.152;19.432;2023-04-23T03:42:53;101071.02;;;12.04;51.05
66742;BME280;53654;54.152;19.432;2023-04-23T03:45:29;101068.58;;;12.02;51.07
66742;BME280;53654;54.152;19.432;2023-04-23T03:47:58;101065.27;;;12.01;50.99
66742;BME280;53654;54.152;19.432;2023-04-23T03:50:26;101063.18;;;12.00;51.05
66742;BME280;53654;54.152;19.432;2023-04-23T03:53:06;101057.95;;;11.99;51.17
66742;BME280;53654;54.152;19.432;2023-04-23T03:56:06;101061.50;;;11.93;51.24
66742;BME280;53654;54.152;19.432;2023-04-23T03:58:39;101062.52;;;11.97;51.25
66742;BME280;53654;54.152;19.432;2023-04-23T04:01:07;101061.44;;;12.00;51.18
66742;BME280;53654;54.152;19.432;2023-04-23T04:03:35;101060.52;;;12.04;51.16
66742;BME280;53654;54.152;19.432;2023-04-23T04:06:03;101061.16;;;12.10;51.06
66742;BME280;53654;54.152;19.432;2023-04-23T04:08:31;101062.66;;;12.17;51.01
66742;BME280;53654;54.152;19.432;2023-04-23T04:11:00;101059.80;;;12.23;50.87
66742;BME280;53654;54.152;19.432;2023-04-23T04:13:28;101059.04;;;12.30;50.80
66742;BME280;53654;54.152;19.432;2023-04-23T04:15:56;101059.33;;;12.35;50.62
66742;BME280;53654;54.152;19.432;2023-04-23T04:18:24;101057.86;;;12.42;50.38
66742;BME280;53654;54.152;19.432;2023-04-23T04:20:52;101060.73;;;12.51;50.25
66742;BME280;53654;54.152;19.432;2023-04-23T04:23:21;101054.34;;;12.57;49.91
66742;BME280;53654;54.152;19.432;2023-04-23T04:25:49;101053.52;;;12.69;49.70
66742;BME280;53654;54.152;19.432;2023-04-23T04:28:18;101053.73;;;12.80;49.54
66742;BME280;53654;54.152;19.432;2023-04-23T04:30:46;101050.62;;;12.89;49.25
66742;BME280;53654;54.152;19.432;2023-04-23T04:33:16;101053.47;;;12.99;48.97
66742;BME280;53654;54.152;19.432;2023-04-23T04:35:45;101051.05;;;13.09;48.76
66742;BME280;53654;54.152;19.432;2023-04-23T04:38:15;101053.53;;;13.22;48.57
66742;BME280;53654;54.152;19.432;2023-04-23T04:40:43;101050.39;;;13.34;48.15
66742;BME280;53654;54.152;19.432;2023-04-23T04:43:12;101048.41;;;13.48;47.84
66742;BME280;53654;54.152;19.432;2023-04-23T04:45:40;101046.92;;;13.95;47.38
66742;BME280;53654;54.152;19.432;2023-04-23T04:48:07;101044.34;;;14.83;45.99
66742;BME280;53654;54.152;19.432;2023-04-23T04:50:35;101040.27;;;15.78;43.73
66742;BME280;53654;54.152;19.432;2023-04-23T04:53:04;101035.86;;;16.63;42.29
66742;BME280;53654;54.152;19.432;2023-04-23T04:55:32;101028.56;;;17.52;40.03
66742;BME280;53654;54.152;19.432;2023-04-23T04:58:00;101029.24;;;18.30;38.41
66742;BME280;53654;54.152;19.432;2023-04-23T05:00:28;101017.84;;;19.08;37.75
66742;BME280;53654;54.152;19.432;2023-04-23T05:02:57;101016.84;;;19.85;35.81
66742;BME280;53654;54.152;19.432;2023-04-23T05:05:26;101014.36;;;20.50;34.60
66742;BME280;53654;54.152;19.432;2023-04-23T05:07:54;101015.33;;;21.06;32.67
66742;BME280;53654;54.152;19.432;2023-04-23T05:10:22;101010.89;;;21.53;32.15
66742;BME280;53654;54.152;19.432;2023-04-23T05:12:50;101008.55;;;22.03;31.10
66742;BME280;53654;54.152;19.432;2023-04-23T05:15:18;101004.21;;;22.45;30.63
66742;BME280;53654;54.152;19.432;2023-04-23T05:17:46;101004.08;;;22.77;30.18
66742;BME280;53654;54.152;19.432;2023-04-23T05:20:15;100994.87;;;23.02;29.72
66742;BME280;53654;54.152;19.432;2023-04-23T05:22:43;101002.38;;;22.79;29.35
66742;BME280;53654;54.152;19.432;2023-04-23T05:25:11;101004.47;;;22.37;29.77
66742;BME280;53654;54.152;19.432;2023-04-23T05:27:40;101005.14;;;22.04;30.21
66742;BME280;53654;54.152;19.432;2023-04-23T05:30:09;101002.04;;;21.95;30.50
66742;BME280;53654;54.152;19.432;2023-04-23T05:32:37;101006.36;;;22.01;30.18
66742;BME280;53654;54.152;19.432;2023-04-23T05:35:06;101007.81;;;22.00;30.49
66742;BME280;53654;54.152;19.432;2023-04-23T05:37:34;101000.25;;;22.26;29.87
66742;BME280;53654;54.152;19.432;2023-04-23T05:40:03;100995.45;;;22.78;29.50
66742;BME280;53654;54.152;19.432;2023-04-23T05:42:36;100991.10;;;23.30;28.84
66742;BME280;53654;54.152;19.432;2023-04-23T05:45:04;100992.06;;;23.72;28.47
66742;BME280;53654;54.152;19.432;2023-04-23T05:47:35;100991.85;;;23.91;27.94
66742;BME280;53654;54.152;19.432;2023-04-23T05:50:05;100989.16;;;23.94;27.92
66742;BME280;53654;54.152;19.432;2023-04-23T05:52:33;100990.09;;;24.02;28.18
66742;BME280;53654;54.152;19.432;2023-04-23T05:55:05;100986.25;;;23.83;28.16
66742;BME280;53654;54.152;19.432;2023-04-23T05:57:36;100983.39;;;23.44;28.65
66742;BME280;53654;54.152;19.432;2023-04-23T06:00:07;100983.71;;;23.11;29.13
66742;BME280;53654;54.152;19.432;2023-04-23T06:02:41;100988.80;;;22.77;29.58
66742;BME280;53654;54.152;19.432;2023-04-23T06:05:10;100994.14;;;22.41;30.15
66742;BME280;53654;54.152;19.432;2023-04-23T06:07:39;100989.61;;;22.12;30.54
66742;BME280;53654;54.152;19.432;2023-04-23T06:10:08;100987.80;;;22.09;30.99
66742;BME280;53654;54.152;19.432;2023-04-23T06:12:37;100987.71;;;22.38;30.67
66742;BME280;53654;54.152;19.432;2023-04-23T06:15:07;100989.99;;;22.68;30.52
66742;BME280;53654;54.152;19.432;2023-04-23T06:17:36;100982.20;;;22.84;30.27
66742;BME280;53654;54.152;19.432;2023-04-23T06:20:05;100978.20;;;22.78;30.61
66742;BME280;53654;54.152;19.432;2023-04-23T06:22:35;100984.27;;;22.82;30.63
66742;BME280;53654;54.152;19.432;2023-04-23T06:25:04;100976.80;;;22.95;30.59
66742;BME280;53654;54.152;19.432;2023-04-23T06:27:33;100973.04;;;23.29;30.43
66742;BME280;53654;54.152;19.432;2023-04-23T06:30:06;100969.42;;;23.61;29.83
66742;BME280;53654;54.152;19.432;2023-04-23T06:32:36;100972.70;;;23.83;29.64
66742;BME280;53654;54.152;19.432;2023-04-23T06:35:05;100970.53;;;23.93;29.38
66742;BME280;53654;54.152;19.432;2023-04-23T06:37:35;100976.93;;;23.87;29.58
66742;BME280;53654;54.152;19.432;2023-04-23T06:40:04;100975.88;;;23.63;30.12
66742;BME280;53654;54.152;19.432;2023-04-23T06:42:33;100976.14;;;23.37;30.38
66742;BME280;53654;54.152;19.432;2023-04-23T06:45:21;100978.34;;;23.11;30.79
66742;BME280;53654;54.152;19.432;2023-04-23T06:47:49;100977.98;;;22.83;30.75
66742;BME280;53654;54.152;19.432;2023-04-23T06:50:17;100977.26;;;22.60;31.44
66742;BME280;53654;54.152;19.432;2023-04-23T06:52:45;100982.89;;;22.39;31.83
66742;BME280;53654;54.152;19.432;2023-04-23T06:55:13;100979.10;;;22.16;32.58
66742;BME280;53654;54.152;19.432;2023-04-23T06:57:41;100980.62;;;21.97;32.80
66742;BME280;53654;54.152;19.432;2023-04-23T07:00:10;100977.83;;;21.69;32.57
66742;BME280;53654;54.152;19.432;2023-04-23T07:02:40;100976.96;;;21.40;33.09
66742;BME280;53654;54.152;19.432;2023-04-23T07:05:09;100971.73;;;21.20;33.44
66742;BME280;53654;54.152;19.432;2023-04-23T07:07:38;100975.97;;;21.06;33.32
66742;BME280;53654;54.152;19.432;2023-04-23T07:10:09;100970.40;;;20.85;33.55
66742;BME280;53654;54.152;19.432;2023-04-23T07:12:38;100966.71;;;20.65;34.02
66742;BME280;53654;54.152;19.432;2023-04-23T07:15:07;100966.14;;;20.50;34.34
66742;BME280;53654;54.152;19.432;2023-04-23T07:17:35;100968.24;;;20.35;34.60
66742;BME280;53654;54.152;19.432;2023-04-23T07:20:04;100970.76;;;20.30;34.72
66742;BME280;53654;54.152;19.432;2023-04-23T07:22:33;100964.59;;;20.29;34.95
66742;BME280;53654;54.152;19.432;2023-04-23T07:25:01;100964.27;;;20.29;34.99
66742;BME280;53654;54.152;19.432;2023-04-23T07:27:31;100960.80;;;20.27;35.28
66742;BME280;53654;54.152;19.432;2023-04-23T07:29:59;100964.42;;;20.25;35.87
66742;BME280;53654;54.152;19.432;2023-04-23T07:32:28;100958.05;;;20.21;36.37
66742;BME280;53654;54.152;19.432;2023-04-23T07:34:57;100951.84;;;20.25;36.50
66742;BME280;53654;54.152;19.432;2023-04-23T07:37:25;100950.93;;;20.34;36.32
66742;BME280;53654;54.152;19.432;2023-04-23T07:39:53;100945.85;;;20.37;36.49
66742;BME280;53654;54.152;19.432;2023-04-23T07:42:22;100943.44;;;20.40;36.44
66742;BME280;53654;54.152;19.432;2023-04-23T07:44:50;100945.20;;;20.43;35.85
66742;BME280;53654;54.152;19.432;2023-04-23T07:47:18;100939.42;;;20.42;35.37
66742;BME280;53654;54.152;19.432;2023-04-23T07:49:46;100938.54;;;20.42;35.74
66742;BME280;53654;54.152;19.432;2023-04-23T07:52:15;100936.63;;;20.45;35.77
66742;BME280;53654;54.152;19.432;2023-04-23T07:54:43;100934.50;;;20.49;35.64
66742;BME280;53654;54.152;19.432;2023-04-23T07:57:13;100932.65;;;20.54;35.49
66742;BME280;53654;54.152;19.432;2023-04-23T07:59:41;100926.41;;;20.55;35.46
66742;BME280;53654;54.152;19.432;2023-04-23T08:02:10;100924.62;;;20.63;35.42
66742;BME280;53654;54.152;19.432;2023-04-23T08:04:38;100921.95;;;20.74;35.67
66742;BME280;53654;54.152;19.432;2023-04-23T08:07:06;100919.31;;;20.85;35.81
66742;BME280;53654;54.152;19.432;2023-04-23T08:09:34;100919.39;;;20.95;35.14
66742;BME280;53654;54.152;19.432;2023-04-23T08:12:02;100916.56;;;21.02;34.91
66742;BME280;53654;54.152;19.432;2023-04-23T08:14:30;100915.13;;;21.09;34.57
66742;BME280;53654;54.152;19.432;2023-04-23T08:16:59;100911.27;;;21.19;34.31
66742;BME280;53654;54.152;19.432;2023-04-23T08:19:27;100908.84;;;21.26;33.84
66742;BME280;53654;54.152;19.432;2023-04-23T08:21:58;100910.26;;;21.29;33.71
66742;BME280;53654;54.152;19.432;2023-04-23T08:24:27;100911.01;;;21.32;33.70
66742;BME280;53654;54.152;19.432;2023-04-23T08:26:55;100909.48;;;21.37;33.59
66742;BME280;53654;54.152;19.432;2023-04-23T08:29:23;100907.07;;;21.40;33.39
66742;BME280;53654;54.152;19.432;2023-04-23T08:31:52;100903.10;;;21.41;33.30
66742;BME280;53654;54.152;19.432;2023-04-23T08:34:19;100902.22;;;21.47;33.21
66742;BME280;53654;54.152;19.432;2023-04-23T08:36:48;100894.42;;;21.58;33.44
66742;BME280;53654;54.152;19.432;2023-04-23T08:39:16;100892.70;;;21.67;33.41
66742;BME280;53654;54.152;19.432;2023-04-23T08:41:48;100890.08;;;21.80;33.05
66742;BME280;53654;54.152;19.432;2023-04-23T08:44:22;100885.32;;;21.96;31.82
66742;BME280;53654;54.152;19.432;2023-04-23T08:46:52;100883.55;;;22.12;31.35
66742;BME280;53654;54.152;19.432;2023-04-23T08:49:20;100882.10;;;22.36;31.34
66742;BME280;53654;54.152;19.432;2023-04-23T08:51:51;100879.44;;;22.58;31.00
66742;BME280;53654;54.152;19.432;2023-04-23T08:54:27;100870.52;;;22.80;30.06
66742;BME280;53654;54.152;19.432;2023-04-23T08:56:56;100867.98;;;22.97;29.99
66742;BME280;53654;54.152;19.432;2023-04-23T08:59:25;100865.86;;;23.18;28.93
66742;BME280;53654;54.152;19.432;2023-04-23T09:01:54;100869.55;;;23.27;28.76
66742;BME280;53654;54.152;19.432;2023-04-23T09:04:23;100862.91;;;23.34;28.61
66742;BME280;53654;54.152;19.432;2023-04-23T09:06:54;100852.02;;;23.38;27.68
66742;BME280;53654;54.152;19.432;2023-04-23T09:09:23;100857.34;;;23.41;27.68
66742;BME280;53654;54.152;19.432;2023-04-23T09:11:51;100855.21;;;23.47;27.50
66742;BME280;53654;54.152;19.432;2023-04-23T09:14:22;100848.28;;;23.53;27.60
66742;BME280;53654;54.152;19.432;2023-04-23T09:16:53;100850.86;;;23.63;27.78
66742;BME280;53654;54.152;19.432;2023-04-23T09:19:24;100852.50;;;23.71;27.15
66742;BME280;53654;54.152;19.432;2023-04-23T09:21:55;100846.00;;;23.67;26.70
66742;BME280;53654;54.152;19.432;2023-04-23T09:24:23;100851.02;;;23.69;27.30
66742;BME280;53654;54.152;19.432;2023-04-23T09:26:52;100848.59;;;23.77;27.58
66742;BME280;53654;54.152;19.432;2023-04-23T09:29:23;100847.20;;;23.82;27.04
66742;BME280;53654;54.152;19.432;2023-04-23T09:31:55;100847.26;;;23.87;26.98
66742;BME280;53654;54.152;19.432;2023-04-23T09:34:24;100849.40;;;23.92;26.35
66742;BME280;53654;54.152;19.432;2023-04-23T09:36:52;100839.77;;;23.90;26.14
66742;BME280;53654;54.152;19.432;2023-04-23T09:39:22;100842.29;;;23.95;26.64
66742;BME280;53654;54.152;19.432;2023-04-23T09:41:51;100837.59;;;24.07;27.90
66742;BME280;53654;54.152;19.432;2023-04-23T09:44:21;100831.52;;;24.22;27.98
66742;BME280;53654;54.152;19.432;2023-04-23T09:46:49;100831.37;;;24.35;27.58
66742;BME280;53654;54.152;19.432;2023-04-23T09:49:17;100823.23;;;24.48;27.33
66742;BME280;53654;54.152;19.432;2023-04-23T09:51:47;100825.59;;;24.61;27.56
66742;BME280;53654;54.152;19.432;2023-04-23T09:54:21;100823.84;;;24.74;27.27
66742;BME280;53654;54.152;19.432;2023-04-23T09:56:52;100816.51;;;24.82;27.37
66742;BME280;53654;54.152;19.432;2023-04-23T09:59:30;100812.35;;;24.94;27.34
66742;BME280;53654;54.152;19.432;2023-04-23T10:02:15;100816.45;;;25.07;27.04
66742;BME280;53654;54.152;19.432;2023-04-23T10:04:43;100815.13;;;25.16;27.46
66742;BME280;53654;54.152;19.432;2023-04-23T10:07:12;100807.14;;;25.23;26.82
66742;BME280;53654;54.152;19.432;2023-04-23T10:09:46;100808.85;;;25.19;26.40
66742;BME280;53654;54.152;19.432;2023-04-23T10:12:16;100806.09;;;25.18;25.92
66742;BME280;53654;54.152;19.432;2023-04-23T10:15:05;100800.86;;;25.13;26.36
66742;BME280;53654;54.152;19.432;2023-04-23T10:17:34;100800.45;;;25.17;26.95
66742;BME280;53654;54.152;19.432;2023-04-23T10:20:05;100794.98;;;25.18;26.03
66742;BME280;53654;54.152;19.432;2023-04-23T10:22:34;100793.28;;;25.25;26.68
66742;BME280;53654;54.152;19.432;2023-04-23T10:25:08;100796.08;;;25.33;25.45
66742;BME280;53654;54.152;19.432;2023-04-23T10:27:41;100795.98;;;25.35;24.82
66742;BME280;53654;54.152;19.432;2023-04-23T10:30:21;100794.45;;;25.29;24.50
66742;BME280;53654;54.152;19.432;2023-04-23T10:32:50;100791.86;;;25.20;24.44
66742;BME280;53654;54.152;19.432;2023-04-23T10:35:18;100792.73;;;25.02;24.17
66742;BME280;53654;54.152;19.432;2023-04-23T10:37:47;100782.36;;;24.75;24.19
66742;BME280;53654;54.152;19.432;2023-04-23T10:40:20;100783.35;;;24.52;23.83
66742;BME280;53654;54.152;19.432;2023-04-23T10:42:50;100777.20;;;24.29;24.28
66742;BME280;53654;54.152;19.432;2023-04-23T10:45:20;100778.98;;;24.21;25.04
66742;BME280;53654;54.152;19.432;2023-04-23T10:47:52;100767.27;;;24.12;24.86
66742;BME280;53654;54.152;19.432;2023-04-23T10:50:25;100775.94;;;24.02;25.63
66742;BME280;53654;54.152;19.432;2023-04-23T10:52:54;100766.77;;;23.97;26.37
66742;BME280;53654;54.152;19.432;2023-04-23T10:55:27;100765.00;;;23.97;26.33
66742;BME280;53654;54.152;19.432;2023-04-23T10:58:00;100765.80;;;23.93;25.35
66742;BME280;53654;54.152;19.432;2023-04-23T11:00:47;100761.11;;;23.83;25.70
66742;BME280;53654;54.152;19.432;2023-04-23T11:03:40;100759.45;;;23.75;25.21
66742;BME280;53654;54.152;19.432;2023-04-23T11:06:13;100761.13;;;23.68;26.16
66742;BME280;53654;54.152;19.432;2023-04-23T11:08:51;100764.58;;;23.70;26.39
66742;BME280;53654;54.152;19.432;2023-04-23T11:11:37;100757.37;;;23.72;25.85
66742;BME280;53654;54.152;19.432;2023-04-23T11:14:11;100751.67;;;23.72;25.88
66742;BME280;53654;54.152;19.432;2023-04-23T11:16:42;100754.05;;;23.73;26.57
66742;BME280;53654;54.152;19.432;2023-04-23T11:19:11;100749.77;;;23.71;25.95
66742;BME280;53654;54.152;19.432;2023-04-23T11:21:57;100751.77;;;23.70;25.60
66742;BME280;53654;54.152;19.432;2023-04-23T11:24:27;100749.13;;;23.67;26.34
66742;BME280;53654;54.152;19.432;2023-04-23T11:26:56;100746.63;;;23.69;26.29
66742;BME280;53654;54.152;19.432;2023-04-23T11:29:25;100747.14;;;23.67;25.58
66742;BME280;53654;54.152;19.432;2023-04-23T11:31:54;100736.49;;;23.59;25.46
66742;BME280;53654;54.152;19.432;2023-04-23T11:34:27;100737.10;;;23.54;25.74
66742;BME280;53654;54.152;19.432;2023-04-23T11:36:57;100731.81;;;23.53;26.05
66742;BME280;53654;54.152;19.432;2023-04-23T11:39:25;100723.02;;;23.55;26.69
66742;BME280;53654;54.152;19.432;2023-04-23T11:41:54;100727.80;;;23.58;27.01
66742;BME280;53654;54.152;19.432;2023-04-23T11:44:22;100722.45;;;23.61;26.57
66742;BME280;53654;54.152;19.432;2023-04-23T11:46:50;100721.60;;;23.54;25.78
66742;BME280;53654;54.152;19.432;2023-04-23T11:49:18;100717.00;;;23.45;25.75
66742;BME280;53654;54.152;19.432;2023-04-23T11:51:48;100720.40;;;23.39;26.42
66742;BME280;53654;54.152;19.432;2023-04-23T11:54:16;100719.07;;;23.40;27.38
66742;BME280;53654;54.152;19.432;2023-04-23T11:56:45;100713.46;;;23.44;27.95
66742;BME280;53654;54.152;19.432;2023-04-23T11:59:12;100715.33;;;23.49;27.92
66742;BME280;53654;54.152;19.432;2023-04-23T12:01:42;100722.36;;;23.54;28.15
66742;BME280;53654;54.152;19.432;2023-04-23T12:04:15;100719.19;;;23.59;28.18
66742;BME280;53654;54.152;19.432;2023-04-23T12:06:45;100724.42;;;23.63;27.26
66742;BME280;53654;54.152;19.432;2023-04-23T12:09:14;100718.10;;;23.65;27.60
66742;BME280;53654;54.152;19.432;2023-04-23T12:11:44;100723.96;;;23.65;27.27
66742;BME280;53654;54.152;19.432;2023-04-23T12:14:13;100715.48;;;23.67;27.38
66742;BME280;53654;54.152;19.432;2023-04-23T12:16:44;100711.70;;;23.67;27.56
66742;BME280;53654;54.152;19.432;2023-04-23T12:19:17;100709.52;;;23.68;27.71
66742;BME280;53654;54.152;19.432;2023-04-23T12:21:50;100709.41;;;23.67;28.12
66742;BME280;53654;54.152;19.432;2023-04-23T12:24:27;100708.77;;;23.66;27.84
66742;BME280;53654;54.152;19.432;2023-04-23T12:26:57;100701.60;;;23.64;27.42
66742;BME280;53654;54.152;19.432;2023-04-23T12:29:30;100699.53;;;23.63;27.92
66742;BME280;53654;54.152;19.432;2023-04-23T12:31:59;100696.79;;;23.61;27.73
66742;BME280;53654;54.152;19.432;2023-04-23T12:34:27;100693.14;;;23.63;27.19
66742;BME280;53654;54.152;19.432;2023-04-23T12:36:55;100690.21;;;23.58;26.78
66742;BME280;53654;54.152;19.432;2023-04-23T12:39:34;100686.97;;;23.56;26.85
66742;BME280;53654;54.152;19.432;2023-04-23T12:42:05;100685.57;;;23.53;26.69
66742;BME280;53654;54.152;19.432;2023-04-23T12:44:34;100687.99;;;23.48;26.49
66742;BME280;53654;54.152;19.432;2023-04-23T12:47:05;100684.95;;;23.45;26.92
66742;BME280;53654;54.152;19.432;2023-04-23T12:49:39;100684.67;;;23.46;27.80
66742;BME280;53654;54.152;19.432;2023-04-23T12:52:08;100681.44;;;23.47;27.34
66742;BME280;53654;54.152;19.432;2023-04-23T12:54:40;100680.86;;;23.47;27.09
66742;BME280;53654;54.152;19.432;2023-04-23T12:57:10;100677.75;;;23.49;27.14